Terminal Aerodrome Forecast
Issued by NWS

Home | Current Version | Previous Version | Text Only | Print | Product List | Glossary On
Versions: 1 2 3 4 5 6 7 8 9 10 11 12 13 14 15 16 17 18 19
000
FTUS46 KSEW 240520
TAFPAE
TAF
KPAE 240520Z 2406/2506 15005KT P6SM OVC060
     FM240900 16008KT P6SM VCSH SCT010 BKN018 OVC025
     FM241700 16010KT P6SM SCT020 BKN035
     FM242100 15006KT P6SM SCT035
     FM250000 VRB04KT P6SM SCT100 BKN200=

USA.gov is the U.S. government's official web portal to all federal, state and local government web resources and services.